createdAt,value
2023-05-25T00:00:16.337Z,32.55
2023-05-25T00:02:46.613Z,32.50
2023-05-25T00:07:44.221Z,31.50
2023-05-25T00:10:14.838Z,33.05
2023-05-25T00:12:43.876Z,32.28
2023-05-25T00:15:13.236Z,31.90
2023-05-25T00:17:42.398Z,33.15
2023-05-25T00:20:13.967Z,31.52
2023-05-25T00:22:46.184Z,33.03
2023-05-25T00:25:16.699Z,32.35
2023-05-25T00:27:45.729Z,32.08
2023-05-25T00:30:14.873Z,32.47
2023-05-25T00:32:45.368Z,33.90
2023-05-25T00:35:14.304Z,32.03
2023-05-25T00:37:42.904Z,33.55
2023-05-25T00:40:15.557Z,34.05
2023-05-25T00:42:46.285Z,35.08
2023-05-25T00:45:15.290Z,35.10
2023-05-25T00:47:44.876Z,35.25
2023-05-25T00:52:46.116Z,35.30
2023-05-25T00:55:17.349Z,37.25
2023-05-25T00:57:50.865Z,36.88
2023-05-25T01:00:21.426Z,37.50
2023-05-25T01:02:53.059Z,38.78
2023-05-25T01:05:25.321Z,39.17
2023-05-25T01:07:54.702Z,40.05
2023-05-25T01:10:26.679Z,39.90
2023-05-25T01:12:57.541Z,42.53
2023-05-25T01:15:26.640Z,41.47
2023-05-25T01:20:30.069Z,41.28
2023-05-25T01:23:02.035Z,44.22
2023-05-25T01:25:35.908Z,44.28
2023-05-25T01:28:07.329Z,43.85
2023-05-25T01:30:38.950Z,45.42
2023-05-25T01:33:08.938Z,42.83
2023-05-25T01:35:38.525Z,42.42
2023-05-25T01:38:09.035Z,44.83
2023-05-25T01:40:37.854Z,41.50
2023-05-25T01:43:06.922Z,42.80
2023-05-25T01:45:36.173Z,43.67
2023-05-25T01:48:09.265Z,42.05
2023-05-25T01:50:43.051Z,44.45
2023-05-25T01:53:16.572Z,41.35
2023-05-25T01:55:51.491Z,40.65
2023-05-25T01:58:21.384Z,40.78
2023-05-25T02:00:51.390Z,43.28
2023-05-25T02:03:21.291Z,42.65
2023-05-25T02:05:51.578Z,42.30
2023-05-25T02:08:22.429Z,42.28
2023-05-25T02:13:20.146Z,42.30
2023-05-25T02:15:49.129Z,42.33
2023-05-25T02:18:18.332Z,42.40
2023-05-25T02:20:48.482Z,42.80
2023-05-25T02:23:18.783Z,43.72
2023-05-25T02:25:48.902Z,41.92
2023-05-25T02:28:18.419Z,41.78
2023-05-25T02:30:47.368Z,39.72
2023-05-25T02:33:16.449Z,38.45
2023-05-25T02:35:45.808Z,39.90
2023-05-25T02:38:15.380Z,38.03
2023-05-25T02:40:44.089Z,38.67
2023-05-25T02:43:14.560Z,38.05
2023-05-25T02:45:43.785Z,38.00
2023-05-25T02:48:13.182Z,38.03
2023-05-25T02:53:15.468Z,42.05
2023-05-25T02:55:44.299Z,39.63
2023-05-25T02:58:20.415Z,37.53
2023-05-25T03:01:10.919Z,40.05
2023-05-25T03:03:44.709Z,40.42
2023-05-25T03:06:14.268Z,43.30
2023-05-25T03:08:43.283Z,39.95
2023-05-25T03:11:12.348Z,41.28
2023-05-25T03:13:43.078Z,42.13
2023-05-25T03:16:12.822Z,42.80
2023-05-25T03:18:41.792Z,42.88
2023-05-25T03:21:10.943Z,39.67
2023-05-25T03:23:39.995Z,40.08
2023-05-25T03:26:10.696Z,42.50
2023-05-25T03:28:39.887Z,42.17
2023-05-25T03:31:11.016Z,41.70
2023-05-25T03:33:40.222Z,41.53
2023-05-25T03:36:10.197Z,42.00
2023-05-25T03:38:39.568Z,38.97
2023-05-25T03:41:08.721Z,39.38
2023-05-25T03:43:37.472Z,41.15
2023-05-25T03:46:10.307Z,41.10
2023-05-25T03:48:39.463Z,41.10
2023-05-25T03:51:08.559Z,42.90
2023-05-25T03:53:37.608Z,40.97
2023-05-25T03:56:07.524Z,42.45
2023-05-25T03:58:38.821Z,41.35
2023-05-25T04:01:09.881Z,43.47
2023-05-25T04:03:39.178Z,42.70
2023-05-25T04:06:08.952Z,42.13
2023-05-25T04:08:41.190Z,41.15
2023-05-25T04:11:10.396Z,40.15
2023-05-25T04:13:40.479Z,39.80
2023-05-25T04:16:13.534Z,38.45
2023-05-25T04:18:43.525Z,39.05
2023-05-25T04:21:12.551Z,39.00
2023-05-25T04:23:43.288Z,41.42
2023-05-25T04:26:12.542Z,40.35
2023-05-25T04:28:43.458Z,36.88
2023-05-25T04:31:25.100Z,37.08
2023-05-25T04:34:09.812Z,38.30
2023-05-25T04:36:44.957Z,38.08
2023-05-25T04:39:16.286Z,36.95
2023-05-25T04:41:51.865Z,37.75
2023-05-25T04:44:22.512Z,36.47
2023-05-25T04:46:55.706Z,39.53
2023-05-25T04:49:35.884Z,39.15
2023-05-25T04:52:05.617Z,38.22
2023-05-25T04:54:35.566Z,39.33
2023-05-25T04:57:05.311Z,37.73
2023-05-25T04:59:34.710Z,35.83
2023-05-25T05:02:05.551Z,37.70
2023-05-25T05:07:03.646Z,36.53
2023-05-25T05:09:33.430Z,38.13
2023-05-25T05:12:03.864Z,38.38
2023-05-25T05:14:38.382Z,36.78
2023-05-25T05:17:08.845Z,35.20
2023-05-25T05:19:37.639Z,35.72
2023-05-25T05:22:09.892Z,35.75
2023-05-25T05:24:40.493Z,36.63
2023-05-25T05:27:09.538Z,36.35
2023-05-25T05:29:46.539Z,34.63
2023-05-25T05:32:19.353Z,35.55
2023-05-25T05:34:48.171Z,36.30
2023-05-25T05:37:34.473Z,37.08
2023-05-25T05:40:03.837Z,36.15
2023-05-25T05:42:33.755Z,38.53
2023-05-25T05:45:02.843Z,34.65
2023-05-25T05:47:34.086Z,35.10
2023-05-25T05:50:03.678Z,36.65
2023-05-25T05:52:32.631Z,35.40
2023-05-25T05:55:01.921Z,33.85
2023-05-25T05:57:31.450Z,34.75
2023-05-25T06:00:01.106Z,33.22
2023-05-25T06:02:30.198Z,34.55
2023-05-25T06:05:01.721Z,33.53
2023-05-25T06:07:31.041Z,32.47
2023-05-25T06:10:00.181Z,32.60
2023-05-25T06:12:29.280Z,32.80
2023-05-25T06:14:58.537Z,34.30
2023-05-25T06:17:27.885Z,32.40
2023-05-25T06:19:56.552Z,36.08
2023-05-25T06:22:30.235Z,33.42
2023-05-25T06:24:59.723Z,33.75
2023-05-25T06:27:29.834Z,33.58
2023-05-25T06:29:58.972Z,34.13
2023-05-25T06:32:28.197Z,32.92
2023-05-25T06:34:56.843Z,32.70
2023-05-25T06:37:26.018Z,32.63
2023-05-25T06:39:57.645Z,31.85
2023-05-25T06:42:26.831Z,31.88
2023-05-25T06:44:58.606Z,35.28
2023-05-25T06:47:29.923Z,32.13
2023-05-25T06:49:59.833Z,34.67
2023-05-25T06:52:29.430Z,32.35
2023-05-25T06:55:00.044Z,32.40
2023-05-25T06:57:29.103Z,32.20
2023-05-25T06:59:58.088Z,33.65
2023-05-25T07:02:27.199Z,34.20
2023-05-25T07:04:55.856Z,31.08
2023-05-25T07:07:24.893Z,31.40
2023-05-25T07:09:53.998Z,32.88
2023-05-25T07:12:24.436Z,33.00
2023-05-25T07:14:53.468Z,32.88
2023-05-25T07:17:22.601Z,32.75
2023-05-25T07:19:51.298Z,30.05
2023-05-25T07:22:20.463Z,31.10
2023-05-25T07:24:49.434Z,32.92
2023-05-25T07:27:19.842Z,30.52
2023-05-25T07:29:50.527Z,30.48
2023-05-25T07:32:19.596Z,28.73
2023-05-25T07:34:48.125Z,30.15
2023-05-25T07:37:17.176Z,30.25
2023-05-25T07:39:46.206Z,31.50
2023-05-25T07:42:20.880Z,30.75
2023-05-25T07:44:51.574Z,30.40
2023-05-25T07:47:20.581Z,29.90
2023-05-25T07:49:49.234Z,28.70
2023-05-25T07:52:19.067Z,29.98
2023-05-25T07:54:48.239Z,30.25
2023-05-25T07:57:17.302Z,31.02
2023-05-25T07:59:46.337Z,31.40
2023-05-25T08:02:16.926Z,28.98
2023-05-25T08:07:14.808Z,30.65
2023-05-25T08:09:44.048Z,28.15
2023-05-25T08:12:37.984Z,28.67
2023-05-25T08:15:02.025Z,28.15
2023-05-25T08:17:32.452Z,27.13
2023-05-25T08:20:01.495Z,27.42
2023-05-25T08:22:30.213Z,26.63
2023-05-25T08:24:59.341Z,26.95
2023-05-25T08:27:28.230Z,26.90
2023-05-25T08:29:57.426Z,27.50
2023-05-25T08:32:26.554Z,27.38
2023-05-25T08:34:57.221Z,26.00
2023-05-25T08:37:26.433Z,25.52
2023-05-25T08:39:55.542Z,26.98
2023-05-25T08:42:24.738Z,27.08
2023-05-25T08:44:53.768Z,25.90
2023-05-25T08:47:24.328Z,26.45
2023-05-25T08:49:58.269Z,27.70
2023-05-25T08:52:58.862Z,27.35
2023-05-25T08:55:49.270Z,27.20
2023-05-25T08:58:22.292Z,24.75
2023-05-25T09:00:57.515Z,26.33
2023-05-25T09:03:27.093Z,25.63
2023-05-25T09:05:58.442Z,25.87
2023-05-25T09:08:27.726Z,24.63
2023-05-25T09:10:57.074Z,24.42
2023-05-25T09:13:26.183Z,26.45
2023-05-25T09:15:55.202Z,26.50
2023-05-25T09:18:24.216Z,24.25
2023-05-25T09:20:53.609Z,26.65
2023-05-25T09:23:24.289Z,25.17
2023-05-25T09:25:53.263Z,24.15
2023-05-25T09:28:26.846Z,25.17
2023-05-25T09:30:57.718Z,25.58
2023-05-25T09:33:26.845Z,26.13
2023-05-25T09:35:56.304Z,26.40
2023-05-25T09:38:27.728Z,25.47
2023-05-25T09:40:57.592Z,25.35
2023-05-25T09:43:40.509Z,25.80
2023-05-25T09:46:12.927Z,25.80
2023-05-25T09:48:43.403Z,24.42
2023-05-25T09:51:13.189Z,25.30
2023-05-25T09:53:44.438Z,25.93
2023-05-25T09:56:13.635Z,26.17
2023-05-25T09:58:42.804Z,26.27
2023-05-25T10:01:12.977Z,23.52
2023-05-25T10:03:59.721Z,23.10
2023-05-25T10:06:34.207Z,22.73
2023-05-25T10:09:05.605Z,21.50
2023-05-25T10:11:36.335Z,21.70
2023-05-25T10:14:08.647Z,21.60
2023-05-25T10:16:38.852Z,21.08
2023-05-25T10:19:14.934Z,18.90
2023-05-25T10:21:44.479Z,19.33
2023-05-25T10:24:21.650Z,19.50
2023-05-25T10:26:52.220Z,19.13
2023-05-25T10:29:22.337Z,17.45
2023-05-25T10:31:51.592Z,17.33
2023-05-25T10:34:21.466Z,18.50
2023-05-25T10:36:50.882Z,16.75
2023-05-25T10:39:21.679Z,16.23
2023-05-25T10:41:51.769Z,15.27
2023-05-25T10:46:50.037Z,15.73
2023-05-25T10:49:28.640Z,17.00
2023-05-25T10:52:01.287Z,16.00
2023-05-25T10:54:33.191Z,14.00
2023-05-25T10:57:12.876Z,16.13
2023-05-25T11:02:16.213Z,15.68
2023-05-25T11:04:45.434Z,14.52
2023-05-25T11:07:16.987Z,15.02
2023-05-25T11:09:58.842Z,13.95
2023-05-25T11:12:28.220Z,13.48
2023-05-25T11:15:16.653Z,12.73
2023-05-25T11:17:48.109Z,13.05
2023-05-25T11:20:29.135Z,12.05
2023-05-25T11:22:59.396Z,12.85
2023-05-25T11:25:40.433Z,13.32
2023-05-25T11:28:11.992Z,12.25
2023-05-25T11:30:42.497Z,12.90
2023-05-25T11:33:11.755Z,12.60
2023-05-25T11:35:41.794Z,12.02
2023-05-25T11:38:11.169Z,13.70
2023-05-25T11:40:41.195Z,13.23
2023-05-25T11:43:11.756Z,12.30
2023-05-25T11:45:41.626Z,12.30
2023-05-25T11:48:15.379Z,11.73
2023-05-25T11:50:44.783Z,11.43
2023-05-25T11:53:15.026Z,10.43
2023-05-25T11:55:57.697Z,9.82
2023-05-25T11:58:35.483Z,11.10
2023-05-25T12:01:15.291Z,10.32
2023-05-25T12:03:44.704Z,12.93
2023-05-25T12:06:27.754Z,12.18
2023-05-25T12:08:57.286Z,11.32
2023-05-25T12:11:31.704Z,10.05
2023-05-25T12:14:01.221Z,11.13
2023-05-25T12:16:30.400Z,9.07
2023-05-25T12:18:59.801Z,8.82
2023-05-25T12:21:29.123Z,10.30
2023-05-25T12:23:58.345Z,11.10
2023-05-25T12:26:27.776Z,10.13
2023-05-25T12:29:04.930Z,9.80
2023-05-25T12:31:35.070Z,10.77
2023-05-25T12:34:06.075Z,11.20
2023-05-25T12:36:45.630Z,11.77
2023-05-25T12:39:16.242Z,10.40
2023-05-25T12:41:46.708Z,9.07
2023-05-25T12:44:25.558Z,10.30
2023-05-25T12:46:55.425Z,10.75
2023-05-25T12:49:31.438Z,10.18
2023-05-25T12:52:01.725Z,9.38
2023-05-25T12:54:43.868Z,10.35
2023-05-25T12:57:14.620Z,9.00
2023-05-25T12:59:45.723Z,10.00
2023-05-25T13:02:15.950Z,8.73
2023-05-25T13:04:44.932Z,9.52
2023-05-25T13:07:13.988Z,8.50
2023-05-25T13:09:43.083Z,8.10
2023-05-25T13:12:12.998Z,9.00
2023-05-25T13:14:41.990Z,8.75
2023-05-25T13:17:12.442Z,8.00
2023-05-25T13:19:41.749Z,8.25
2023-05-25T13:22:11.136Z,9.10
2023-05-25T13:24:40.618Z,8.70
2023-05-25T13:29:38.912Z,7.55
2023-05-25T13:32:08.440Z,8.10
2023-05-25T13:34:39.162Z,7.10
2023-05-25T13:37:08.344Z,7.10
2023-05-25T13:39:37.586Z,7.07
2023-05-25T13:42:07.785Z,7.35
2023-05-25T13:44:37.292Z,6.53
2023-05-25T13:47:06.827Z,7.15
2023-05-25T13:49:35.580Z,8.85
2023-05-25T13:52:06.419Z,8.05
2023-05-25T13:54:35.679Z,8.05
2023-05-25T13:57:04.924Z,8.03
2023-05-25T13:59:33.978Z,8.23
2023-05-25T14:02:04.287Z,8.50
2023-05-25T14:04:33.045Z,8.05
2023-05-25T14:07:02.758Z,8.20
2023-05-25T14:09:33.267Z,7.07
2023-05-25T14:12:03.117Z,7.30
2023-05-25T14:17:02.419Z,7.47
2023-05-25T14:19:31.179Z,6.32
2023-05-25T14:24:44.410Z,7.07
2023-05-25T14:27:13.598Z,6.82
2023-05-25T14:29:42.576Z,6.93
2023-05-25T14:32:11.618Z,7.35
2023-05-25T14:34:40.337Z,7.72
2023-05-25T14:37:09.288Z,7.45
2023-05-25T14:39:38.871Z,7.88
2023-05-25T14:42:09.507Z,7.22
2023-05-25T14:44:39.557Z,8.45
2023-05-25T14:47:11.874Z,8.15
2023-05-25T14:49:41.171Z,7.85
2023-05-25T14:52:10.329Z,7.80
2023-05-25T14:54:44.912Z,7.37
2023-05-25T14:57:16.394Z,8.00
2023-05-25T14:59:45.550Z,8.20
2023-05-25T15:02:14.646Z,7.30
2023-05-25T15:04:43.282Z,8.27
2023-05-25T15:07:13.084Z,7.32
2023-05-25T15:09:42.406Z,7.45
2023-05-25T15:12:11.416Z,7.30
2023-05-25T15:14:42.510Z,7.75
2023-05-25T15:17:11.581Z,8.30
2023-05-25T15:19:40.091Z,7.72
2023-05-25T15:22:09.124Z,8.50
2023-05-25T15:24:38.103Z,8.32
2023-05-25T15:27:07.281Z,8.82
2023-05-25T15:29:36.340Z,7.97
2023-05-25T15:32:08.029Z,8.10
2023-05-25T15:34:37.442Z,7.95
2023-05-25T15:37:06.794Z,8.52
2023-05-25T15:39:35.753Z,8.02
2023-05-25T15:42:04.931Z,8.05
2023-05-25T15:44:34.122Z,5.37
2023-05-25T15:47:03.114Z,7.27
2023-05-25T15:49:36.993Z,8.15
2023-05-25T15:52:06.839Z,8.68
2023-05-25T15:54:35.921Z,8.70
2023-05-25T15:57:05.063Z,8.07
2023-05-25T15:59:34.138Z,8.75
2023-05-25T16:02:03.158Z,7.87
2023-05-25T16:04:33.226Z,8.80
2023-05-25T16:07:02.214Z,8.65
2023-05-25T16:09:31.713Z,8.10
2023-05-25T16:12:01.124Z,9.52
2023-05-25T16:14:30.145Z,8.10
2023-05-25T16:16:59.214Z,9.43
2023-05-25T16:19:29.117Z,9.85
2023-05-25T16:21:59.682Z,9.10
2023-05-25T16:24:28.763Z,8.43
2023-05-25T16:26:58.269Z,9.98
2023-05-25T16:29:27.703Z,9.38
2023-05-25T16:31:56.830Z,8.95
2023-05-25T16:34:25.978Z,8.75
2023-05-25T16:36:55.189Z,9.27
2023-05-25T16:39:25.649Z,9.17
2023-05-25T16:41:54.779Z,8.32
2023-05-25T16:44:24.005Z,9.45
2023-05-25T16:46:52.690Z,8.35
2023-05-25T16:49:21.620Z,9.00
2023-05-25T16:51:50.787Z,8.50
2023-05-25T16:54:19.935Z,8.98
2023-05-25T16:56:50.377Z,8.50
2023-05-25T16:59:19.698Z,8.55
2023-05-25T17:01:48.253Z,8.52
2023-05-25T17:04:17.411Z,8.30
2023-05-25T17:06:46.394Z,8.40
2023-05-25T17:09:15.523Z,8.93
2023-05-25T17:11:44.530Z,8.38
2023-05-25T17:14:14.924Z,9.40
2023-05-25T17:19:15.091Z,9.80
2023-05-25T17:21:44.279Z,9.40
2023-05-25T17:24:13.309Z,8.90
2023-05-25T17:26:42.322Z,8.80
2023-05-25T17:29:11.332Z,9.25
2023-05-25T17:31:41.286Z,9.00
2023-05-25T17:34:10.395Z,8.95
2023-05-25T17:36:39.337Z,10.23
2023-05-25T17:39:08.449Z,9.65
2023-05-25T17:41:37.590Z,9.25
2023-05-25T17:44:06.637Z,9.63
2023-05-25T17:46:36.455Z,9.02
2023-05-25T17:49:07.069Z,10.07
2023-05-25T17:51:37.678Z,10.07
2023-05-25T17:54:06.742Z,8.95
2023-05-25T17:56:35.828Z,9.77
2023-05-25T17:59:04.761Z,9.13
2023-05-25T18:01:34.665Z,9.38
2023-05-25T18:06:34.151Z,9.50
2023-05-25T18:09:03.122Z,9.27
2023-05-25T18:11:33.697Z,9.40
2023-05-25T18:14:03.007Z,9.02
2023-05-25T18:16:31.662Z,9.20
2023-05-25T18:19:00.809Z,9.55
2023-05-25T18:21:29.818Z,8.68
2023-05-25T18:24:00.636Z,9.80
2023-05-25T18:26:30.576Z,9.20
2023-05-25T18:28:59.622Z,9.48
2023-05-25T18:31:30.672Z,9.73
2023-05-25T18:34:00.391Z,11.18
2023-05-25T18:36:31.559Z,10.13
2023-05-25T18:39:01.993Z,8.98
2023-05-25T18:41:31.198Z,9.77
2023-05-25T18:44:00.262Z,9.80
2023-05-25T18:46:29.493Z,9.48
2023-05-25T18:48:58.637Z,9.52
2023-05-25T18:51:27.690Z,8.75
2023-05-25T18:53:58.710Z,10.32
2023-05-25T18:56:29.116Z,9.90
2023-05-25T18:58:57.924Z,10.13
2023-05-25T19:01:26.990Z,10.02
2023-05-25T19:03:58.328Z,9.63
2023-05-25T19:06:28.134Z,9.30
2023-05-25T19:08:57.117Z,9.68
2023-05-25T19:11:26.184Z,10.18
2023-05-25T19:13:56.160Z,10.30
2023-05-25T19:18:53.972Z,9.60
2023-05-25T19:21:23.121Z,9.63
2023-05-25T19:23:52.072Z,10.25
2023-05-25T19:26:21.002Z,9.93
2023-05-25T19:28:49.593Z,10.88
2023-05-25T19:31:21.620Z,10.43
2023-05-25T19:33:50.946Z,10.15
2023-05-25T19:36:19.976Z,10.63
2023-05-25T19:38:48.950Z,10.10
2023-05-25T19:41:18.055Z,10.70
2023-05-25T19:43:46.602Z,11.23
2023-05-25T19:46:15.762Z,10.23
2023-05-25T19:48:46.096Z,10.25
2023-05-25T19:53:43.774Z,10.10
2023-05-25T19:56:12.820Z,10.75
2023-05-25T19:58:41.836Z,10.05
2023-05-25T20:01:11.056Z,9.82
2023-05-25T20:03:40.099Z,10.32
2023-05-25T20:06:10.851Z,10.20
2023-05-25T20:08:39.897Z,11.07
2023-05-25T20:11:08.862Z,9.77
2023-05-25T20:13:37.536Z,10.30
2023-05-25T20:16:10.233Z,10.60
2023-05-25T20:18:39.456Z,10.88
2023-05-25T20:21:08.493Z,10.70
2023-05-25T20:23:38.972Z,11.13
2023-05-25T20:26:08.670Z,12.07
2023-05-25T20:28:37.263Z,11.40
2023-05-25T20:31:06.579Z,10.32
2023-05-25T20:33:35.624Z,11.35
2023-05-25T20:36:04.515Z,10.77
2023-05-25T20:38:33.485Z,10.98
2023-05-25T20:41:03.815Z,10.65
2023-05-25T20:43:32.453Z,11.43
2023-05-25T20:46:01.616Z,11.48
2023-05-25T20:48:30.776Z,11.98
2023-05-25T20:50:59.768Z,11.93
2023-05-25T20:53:28.923Z,12.43
2023-05-25T20:55:58.803Z,12.52
2023-05-25T20:58:28.880Z,12.83
2023-05-25T21:00:57.933Z,13.05
2023-05-25T21:03:27.069Z,12.60
2023-05-25T21:05:56.102Z,11.95
2023-05-25T21:08:25.285Z,12.48
2023-05-25T21:10:53.888Z,13.48
2023-05-25T21:13:23.238Z,12.75
2023-05-25T21:15:53.883Z,13.85
2023-05-25T21:18:22.981Z,13.85
2023-05-25T21:20:51.915Z,14.00
2023-05-25T21:23:20.955Z,14.15
2023-05-25T21:25:49.654Z,14.05
2023-05-25T21:28:18.629Z,14.27
2023-05-25T21:30:47.698Z,13.40
2023-05-25T21:33:18.226Z,14.35
2023-05-25T21:35:47.304Z,14.55
2023-05-25T21:38:16.270Z,14.98
2023-05-25T21:40:44.884Z,13.77
2023-05-25T21:43:13.878Z,14.02
2023-05-25T21:45:42.982Z,13.80
2023-05-25T21:48:12.089Z,12.85
2023-05-25T21:50:42.708Z,12.07
2023-05-25T21:53:11.709Z,11.40
2023-05-25T21:55:41.010Z,11.63
2023-05-25T21:58:10.139Z,10.73
2023-05-25T22:00:39.112Z,9.82
2023-05-25T22:03:09.192Z,10.65
2023-05-25T22:05:38.756Z,10.00
2023-05-25T22:08:09.306Z,9.40
2023-05-25T22:10:37.966Z,9.60
2023-05-25T22:13:07.330Z,8.73
2023-05-25T22:15:36.297Z,8.93
2023-05-25T22:18:07.086Z,9.15
2023-05-25T22:20:38.568Z,8.93
2023-05-25T22:23:09.257Z,10.18
2023-05-25T22:25:37.863Z,9.30
2023-05-25T22:28:06.868Z,9.30
2023-05-25T22:30:35.939Z,9.18
2023-05-25T22:33:05.057Z,10.02
2023-05-25T22:35:34.253Z,10.52
2023-05-25T22:38:03.085Z,9.52
2023-05-25T22:40:33.141Z,10.30
2023-05-25T22:43:02.177Z,10.63
2023-05-25T22:45:31.157Z,10.05
2023-05-25T22:48:00.331Z,11.48
2023-05-25T22:50:29.223Z,10.68
2023-05-25T22:52:58.390Z,10.48
2023-05-25T22:55:26.902Z,10.30
2023-05-25T22:57:57.440Z,11.65
2023-05-25T23:00:26.468Z,12.20
2023-05-25T23:02:55.566Z,11.27
2023-05-25T23:05:24.624Z,12.48
2023-05-25T23:07:53.097Z,10.88
2023-05-25T23:10:22.101Z,11.85
2023-05-25T23:12:51.492Z,11.32
2023-05-25T23:15:22.494Z,11.50
2023-05-25T23:17:51.505Z,11.43
2023-05-25T23:20:20.551Z,11.27
2023-05-25T23:22:49.377Z,11.77
2023-05-25T23:25:18.321Z,11.70
2023-05-25T23:27:47.299Z,11.27
2023-05-25T23:30:16.646Z,10.68
2023-05-25T23:32:47.116Z,10.02
2023-05-25T23:35:16.146Z,9.85
2023-05-25T23:37:45.027Z,9.45
2023-05-25T23:40:14.178Z,9.63
2023-05-25T23:42:45.236Z,8.88
2023-05-25T23:45:14.478Z,9.00
2023-05-25T23:47:43.457Z,9.32
2023-05-25T23:50:14.008Z,8.05
2023-05-25T23:52:42.692Z,7.65
2023-05-25T23:55:11.678Z,7.97
2023-05-25T23:57:40.897Z,8.18
